Farmington, Washington
Current Conditions -  °F | °C
As of 2:53 AM on Tuesday 21 Oct 2014 (Local Time) from KPUW Reporting Station
Light Rain Light Rain  
Wind Chill:   Ceiling: 7000
Heat Index:   Visibility: 8mi
Dew Point:   Wind: 3mph
Humidity: 89%   Direction: 160°SSE
Pressure: 29.88"   Gusts: NA
Location:  47.09°N, 117.04°W
Report Text: KPUW 210953Z AUTO 16003KT 8SM -RA BKN070 OVC090 09/07 A2988 RMK AO2 RAB09 SLP113 P0000 T00890072
Loading
Personal Weather Stations






























Interactive Weather Map
Tropical Storm Tracking
New forecast layout! Learn more

10-Day Weather Forecast

Advertisements
Track Severe Weather on mobile